Time;durP1;ratioP1;P1;durP2;ratioP2;P2;SDS_P1;SDS_P2;PMS_P1;PMS_P2;Temp;Humidity;BMP_temperature;BMP_pressure;BME280_temperature;BME280_humidity;BME280_pressure;Samples;Min_cycle;Max_cycle;Signal;HPM_P1;HPM_P2
2022/12/24 00:00:58;;;;;;;27.88;4.95;;;8.80;99.90;;;;;;5053263;28;20036;-49
2022/12/24 00:03:25;;;;;;;35.40;5.70;;;8.80;99.90;;;;;;5052806;28;20072;-51
2022/12/24 00:05:52;;;;;;;37.95;6.15;;;8.80;99.90;;;;;;5052850;28;20060;-45
2022/12/24 00:08:19;;;;;;;32.20;6.13;;;8.90;99.90;;;;;;5052576;28;20057;-47
2022/12/24 00:10:45;;;;;;;26.92;4.88;;;8.80;99.90;;;;;;5052901;28;20415;-49
2022/12/24 00:13:12;;;;;;;35.55;6.65;;;8.80;99.90;;;;;;5047490;28;20045;-51
2022/12/24 00:15:39;;;;;;;39.03;6.25;;;8.80;99.90;;;;;;5052933;28;20041;-46
2022/12/24 00:18:05;;;;;;;34.78;5.25;;;8.90;99.90;;;;;;5035888;28;20045;-49
2022/12/24 00:20:32;;;;;;;39.25;6.45;;;8.90;99.90;;;;;;5032935;28;20041;-48
2022/12/24 00:22:59;;;;;;;36.28;5.88;;;8.90;99.90;;;;;;5032945;28;20050;-52
2022/12/24 00:25:26;;;;;;;31.67;5.65;;;8.90;99.90;;;;;;5032818;28;20103;-45
2022/12/24 00:27:52;;;;;;;40.78;6.20;;;8.80;99.90;;;;;;5031488;28;20071;-49
2022/12/24 00:30:19;;;;;;;41.47;6.38;;;8.80;99.90;;;;;;5042760;28;20088;-48
2022/12/24 00:32:46;;;;;;;35.55;5.70;;;8.80;99.90;;;;;;5052808;28;20065;-47
2022/12/24 00:35:12;;;;;;;34.75;6.00;;;8.80;99.90;;;;;;5052406;28;20041;-49
2022/12/24 00:37:39;;;;;;;31.73;5.78;;;8.90;99.90;;;;;;5041049;28;20067;-47
2022/12/24 00:40:06;;;;;;;30.85;6.05;;;8.80;99.90;;;;;;5056239;28;20049;-45
2022/12/24 00:42:33;;;;;;;30.55;5.22;;;8.80;99.90;;;;;;5045034;28;20484;-48
2022/12/24 00:45:00;;;;;;;38.20;6.35;;;8.80;99.90;;;;;;5036434;28;20415;-48
2022/12/24 00:47:26;;;;;;;36.80;6.15;;;8.80;99.90;;;;;;5034956;28;20392;-49
2022/12/24 00:49:54;;;;;;;35.58;6.03;;;8.80;99.90;;;;;;5036107;28;20471;-50
2022/12/24 00:52:20;;;;;;;30.58;5.13;;;8.80;99.90;;;;;;5036341;28;20072;-49
2022/12/24 00:54:47;;;;;;;31.98;5.88;;;8.80;99.90;;;;;;5048763;28;20369;-46
2022/12/24 00:57:14;;;;;;;31.90;6.03;;;8.80;99.90;;;;;;5043743;28;20370;-50
2022/12/24 00:59:40;;;;;;;34.67;6.22;;;8.80;99.90;;;;;;5036267;28;20049;-48
2022/12/24 01:02:07;;;;;;;33.85;5.93;;;8.80;99.90;;;;;;5035964;28;20095;-48
2022/12/24 01:07:20;;;;;;;36.70;5.85;;;8.70;99.90;;;;;;5042147;28;20144;-49
2022/12/24 01:09:47;;;;;;;32.60;5.82;;;8.70;99.90;;;;;;5055742;28;20053;-45
2022/12/24 01:12:13;;;;;;;39.30;6.63;;;8.70;99.90;;;;;;5045210;28;20449;-49
2022/12/24 01:14:40;;;;;;;31.83;6.60;;;8.70;99.90;;;;;;5036095;28;20096;-50
2022/12/24 01:17:07;;;;;;;31.58;5.22;;;8.70;99.90;;;;;;5035804;28;20374;-47
2022/12/24 01:19:33;;;;;;;37.00;6.43;;;8.70;99.90;;;;;;5035401;28;20041;-48
2022/12/24 01:22:00;;;;;;;36.30;5.68;;;8.70;99.90;;;;;;5054084;28;20053;-49
2022/12/24 01:24:27;;;;;;;37.08;5.18;;;8.70;99.90;;;;;;5055466;28;20048;-49
2022/12/24 01:26:54;;;;;;;36.58;5.90;;;8.60;99.90;;;;;;5054179;28;20388;-48
2022/12/24 01:29:20;;;;;;;36.47;5.88;;;8.60;99.90;;;;;;5035421;28;20492;-53
2022/12/24 01:31:47;;;;;;;35.83;5.75;;;8.60;99.90;;;;;;5034665;28;20037;-52
2022/12/24 01:34:14;;;;;;;30.63;5.80;;;8.60;99.90;;;;;;5048676;28;20469;-50
2022/12/24 01:36:41;;;;;;;32.42;5.05;;;8.60;99.90;;;;;;5035373;28;20381;-49
2022/12/24 01:39:07;;;;;;;35.30;6.47;;;8.60;99.90;;;;;;5035553;28;20041;-49
2022/12/24 01:44:19;;;;;;;40.45;5.22;;;8.60;99.90;;;;;;5035471;28;20053;-52
2022/12/24 01:46:46;;;;;;;31.67;5.80;;;8.50;99.90;;;;;;5035128;28;20041;-50
2022/12/24 01:49:13;;;;;;;40.17;6.28;;;8.50;99.90;;;;;;5035233;28;20121;-49
2022/12/24 01:51:40;;;;;;;42.65;6.30;;;8.50;99.90;;;;;;5033992;28;20065;-49
2022/12/24 01:54:06;;;;;;;32.05;5.68;;;8.50;99.90;;;;;;5042328;28;20098;-49
2022/12/24 01:56:33;;;;;;;43.38;5.80;;;8.50;99.90;;;;;;5047809;28;20099;-52
2022/12/24 01:59:00;;;;;;;37.63;6.32;;;8.50;99.90;;;;;;5034539;28;20049;-50
2022/12/24 02:01:27;;;;;;;36.17;6.45;;;8.50;99.90;;;;;;5035046;28;20050;-46
2022/12/24 02:03:53;;;;;;;41.75;6.70;;;8.50;99.90;;;;;;5034808;28;20104;-49
2022/12/24 02:06:21;;;;;;;39.13;6.70;;;8.50;99.90;;;;;;5035030;28;20445;-46
2022/12/24 02:08:47;;;;;;;33.35;5.38;;;8.60;99.90;;;;;;5034472;28;20136;-49
2022/12/24 02:11:14;;;;;;;43.47;6.75;;;8.60;99.90;;;;;;5034520;28;20053;-44
2022/12/24 02:13:41;;;;;;;37.53;5.70;;;8.70;99.90;;;;;;5053708;28;20048;-46
2022/12/24 02:16:08;;;;;;;41.95;6.30;;;8.70;99.90;;;;;;5054820;28;20048;-48
2022/12/24 02:18:34;;;;;;;38.88;7.78;;;8.70;99.90;;;;;;5054898;28;20045;-47
2022/12/24 02:21:01;;;;;;;37.90;5.97;;;8.80;99.90;;;;;;5054544;28;20068;-48
2022/12/24 02:23:28;;;;;;;38.92;6.57;;;8.80;99.90;;;;;;5054543;28;20095;-47
2022/12/24 02:25:55;;;;;;;38.78;5.53;;;8.80;99.90;;;;;;5051779;28;20098;-47
2022/12/24 02:28:21;;;;;;;34.08;6.25;;;8.70;99.90;;;;;;5052895;28;20091;-47
2022/12/24 02:30:48;;;;;;;40.92;7.13;;;8.70;99.90;;;;;;5054444;28;20041;-44
2022/12/24 02:33:15;;;;;;;33.33;5.43;;;8.70;99.90;;;;;;5054044;28;20033;-46
2022/12/24 02:35:42;;;;;;;41.20;6.70;;;8.70;99.90;;;;;;5033374;28;20045;-44
2022/12/24 02:38:08;;;;;;;36.33;6.07;;;8.70;99.90;;;;;;5034113;28;20076;-44
2022/12/24 02:40:35;;;;;;;32.67;5.72;;;8.70;99.90;;;;;;5033106;28;20046;-48
2022/12/24 02:43:02;;;;;;;43.90;6.45;;;8.70;99.90;;;;;;5051756;28;20052;-48
2022/12/24 02:45:29;;;;;;;43.75;6.30;;;8.60;99.90;;;;;;5053987;28;20480;-44
2022/12/24 02:47:55;;;;;;;45.30;6.72;;;8.60;99.90;;;;;;5054205;28;20443;-48
2022/12/24 02:50:22;;;;;;;40.88;6.47;;;8.60;99.90;;;;;;5034792;28;20104;-44
2022/12/24 02:52:49;;;;;;;37.35;6.43;;;8.50;99.90;;;;;;5034299;28;20049;-46
2022/12/24 02:55:15;;;;;;;40.08;6.15;;;8.50;99.90;;;;;;5050301;28;20090;-47
2022/12/24 02:57:42;;;;;;;44.60;6.10;;;8.50;99.90;;;;;;5053924;28;20041;-45
2022/12/24 03:00:09;;;;;;;37.40;6.40;;;8.50;99.90;;;;;;5052175;28;20128;-46
2022/12/24 03:02:36;;;;;;;37.60;7.45;;;8.50;99.90;;;;;;5053622;28;20492;-45
2022/12/24 03:05:03;;;;;;;45.03;6.60;;;8.40;99.90;;;;;;5040681;28;20121;-45
2022/12/24 03:07:30;;;;;;;43.35;8.30;;;8.40;99.90;;;;;;5032480;28;20049;-45
2022/12/24 03:09:56;;;;;;;48.25;7.40;;;8.40;99.90;;;;;;5033098;28;20103;-44
2022/12/24 03:12:23;;;;;;;35.80;5.85;;;8.40;99.90;;;;;;5044338;28;20064;-44
2022/12/24 03:14:50;;;;;;;43.35;6.85;;;8.40;99.90;;;;;;5053539;28;20037;-45
2022/12/24 03:17:17;;;;;;;43.33;6.35;;;8.40;99.90;;;;;;5053890;28;20041;-49
2022/12/24 03:19:43;;;;;;;37.85;6.35;;;8.40;99.90;;;;;;5051550;28;20040;-45
2022/12/24 03:22:10;;;;;;;38.78;6.47;;;8.40;99.90;;;;;;5050617;28;20512;-47
2022/12/24 03:24:37;;;;;;;40.00;6.78;;;8.40;99.90;;;;;;5045086;28;20045;-46
2022/12/24 03:27:04;;;;;;;42.10;6.20;;;8.40;99.90;;;;;;5053449;28;20408;-47
2022/12/24 03:29:30;;;;;;;42.17;6.63;;;8.40;99.90;;;;;;5052115;28;20553;-46
2022/12/24 03:31:57;;;;;;;42.78;5.50;;;8.40;99.90;;;;;;5052149;28;20049;-44
2022/12/24 03:34:24;;;;;;;32.53;5.85;;;8.40;99.90;;;;;;5044898;28;20549;-44
2022/12/24 03:36:51;;;;;;;41.72;5.95;;;8.30;99.90;;;;;;5032931;28;21115;-45
2022/12/24 03:39:18;;;;;;;33.58;5.63;;;8.30;99.90;;;;;;5033192;28;20042;-44
2022/12/24 03:41:44;;;;;;;37.55;5.55;;;8.30;99.90;;;;;;5041875;28;20045;-48
2022/12/24 03:44:11;;;;;;;44.30;5.78;;;8.30;99.90;;;;;;5033523;28;20046;-45
2022/12/24 03:46:38;;;;;;;33.72;5.68;;;8.30;99.90;;;;;;5033106;28;20049;-45
2022/12/24 03:49:04;;;;;;;39.97;6.07;;;8.30;99.90;;;;;;5031415;28;20111;-45
2022/12/24 03:51:32;;;;;;;27.65;5.88;;;8.20;99.90;;;;;;5032896;28;20037;-46
2022/12/24 03:53:58;;;;;;;34.45;5.60;;;8.20;99.90;;;;;;5039022;28;20044;-50
2022/12/24 03:56:25;;;;;;;39.03;5.90;;;8.20;99.90;;;;;;5052667;28;20041;-51
2022/12/24 03:58:52;;;;;;;34.45;5.88;;;8.20;99.90;;;;;;5052726;28;20041;-47
2022/12/24 04:01:19;;;;;;;32.92;5.72;;;8.20;99.90;;;;;;5044008;28;20056;-50
2022/12/24 04:03:46;;;;;;;32.08;6.05;;;8.20;99.90;;;;;;5033086;28;20120;-48
2022/12/24 04:06:13;;;;;;;32.65;6.00;;;8.20;99.90;;;;;;5033044;28;20445;-46
2022/12/24 04:08:39;;;;;;;40.45;6.15;;;8.10;99.90;;;;;;5032973;28;20054;-47
2022/12/24 04:11:06;;;;;;;37.85;6.45;;;8.10;99.90;;;;;;5032490;28;20468;-49
2022/12/24 04:13:35;;;;;;;34.42;5.43;;;8.10;99.90;;;;;;5036264;28;20061;-45
2022/12/24 04:16:02;;;;;;;35.83;5.97;;;8.10;99.90;;;;;;5038207;28;20036;-48
2022/12/24 04:18:29;;;;;;;32.33;5.00;;;8.10;99.90;;;;;;5057377;28;20139;-49
2022/12/24 04:20:56;;;;;;;39.67;5.60;;;8.10;99.90;;;;;;5041826;28;20466;-53
2022/12/24 04:23:22;;;;;;;43.78;5.78;;;8.10;99.90;;;;;;5037917;28;20120;-47
2022/12/24 04:25:49;;;;;;;33.15;5.28;;;8.10;99.90;;;;;;5055502;28;20091;-53
2022/12/24 04:28:16;;;;;;;37.63;5.50;;;8.10;99.90;;;;;;5056990;28;20041;-47
2022/12/24 04:30:43;;;;;;;30.40;5.10;;;8.10;99.90;;;;;;5050538;28;20038;-50
2022/12/24 04:33:09;;;;;;;30.92;4.60;;;8.10;99.90;;;;;;5050718;28;20041;-50
2022/12/24 04:35:36;;;;;;;31.08;5.50;;;8.10;99.90;;;;;;5056689;28;20073;-47
2022/12/24 04:38:03;;;;;;;40.92;5.60;;;8.10;99.90;;;;;;5055219;28;20091;-48
2022/12/24 04:40:30;;;;;;;34.35;5.63;;;8.00;99.90;;;;;;5050867;28;20041;-46
2022/12/24 04:42:56;;;;;;;27.00;4.32;;;8.00;99.90;;;;;;5056522;28;20056;-50
2022/12/24 04:45:23;;;;;;;31.52;5.05;;;8.00;99.90;;;;;;5056336;28;20124;-48
2022/12/24 04:47:50;;;;;;;37.53;4.90;;;8.00;99.90;;;;;;5050838;28;20057;-49
2022/12/24 04:50:16;;;;;;;30.92;6.05;;;8.00;99.90;;;;;;5036317;28;20096;-50
2022/12/24 04:52:43;;;;;;;30.00;4.60;;;8.00;99.90;;;;;;5034925;28;20060;-49
2022/12/24 04:55:10;;;;;;;29.15;4.68;;;8.00;99.90;;;;;;5052532;28;20045;-47
2022/12/24 04:57:37;;;;;;;36.25;6.15;;;8.00;99.90;;;;;;5054763;28;20049;-50
2022/12/24 05:00:03;;;;;;;27.27;4.13;;;8.00;99.90;;;;;;5050097;28;20089;-48
2022/12/24 05:02:30;;;;;;;33.95;5.80;;;8.00;99.90;;;;;;5052673;28;20480;-46
2022/12/24 05:04:57;;;;;;;31.15;4.72;;;8.00;99.90;;;;;;5035978;28;20071;-47
2022/12/24 05:07:24;;;;;;;22.67;4.18;;;8.00;99.90;;;;;;5036148;28;20042;-54
2022/12/24 05:09:51;;;;;;;23.10;4.50;;;8.00;99.90;;;;;;5041224;28;20084;-46
2022/12/24 05:12:17;;;;;;;29.70;4.68;;;7.90;99.90;;;;;;5054609;28;20076;-49
2022/12/24 05:14:44;;;;;;;27.10;4.78;;;7.90;99.90;;;;;;5054804;28;20480;-49
2022/12/24 05:17:11;;;;;;;25.38;4.75;;;8.00;99.90;;;;;;5053412;28;20041;-50
2022/12/24 05:19:38;;;;;;;25.63;4.90;;;7.90;99.90;;;;;;5044333;28;20547;-53
2022/12/24 05:27:35;;;;;;;26.30;4.50;;;7.90;99.90;;;;;;5054755;28;20163;-47
2022/12/24 05:30:02;;;;;;;24.45;4.30;;;7.90;99.90;;;;;;5054574;28;20045;-49
2022/12/24 05:32:28;;;;;;;23.60;4.20;;;7.90;99.90;;;;;;5047167;28;20045;-49
2022/12/24 05:34:55;;;;;;;30.08;4.80;;;7.90;99.90;;;;;;5054449;28;20107;-48
2022/12/24 05:37:22;;;;;;;28.05;4.43;;;7.90;99.90;;;;;;5047631;28;20040;-48
2022/12/24 05:39:49;;;;;;;23.17;4.00;;;7.90;99.90;;;;;;5043383;28;20041;-49
2022/12/24 05:42:15;;;;;;;23.10;4.68;;;7.80;99.90;;;;;;5034356;28;20049;-48
2022/12/24 05:44:42;;;;;;;24.40;3.60;;;7.80;99.90;;;;;;5034263;28;20038;-49
2022/12/24 05:47:09;;;;;;;30.52;4.38;;;7.80;99.90;;;;;;5034166;28;20049;-45
2022/12/24 05:49:36;;;;;;;30.75;4.65;;;7.80;99.90;;;;;;5034096;28;20099;-48
2022/12/24 05:52:03;;;;;;;29.77;5.53;;;7.80;99.90;;;;;;5032922;28;20052;-48
2022/12/24 05:54:30;;;;;;;27.52;4.70;;;7.80;99.90;;;;;;5042440;28;20060;-51
2022/12/24 05:56:56;;;;;;;21.25;3.85;;;7.80;99.90;;;;;;5049660;28;20048;-53
2022/12/24 05:59:23;;;;;;;26.90;3.78;;;7.80;99.90;;;;;;5036918;28;20140;-51
2022/12/24 06:01:50;;;;;;;27.33;3.70;;;7.80;99.90;;;;;;5036491;28;20044;-51
2022/12/24 06:04:17;;;;;;;25.90;4.25;;;7.80;99.90;;;;;;5048653;28;20073;-48
2022/12/24 06:06:52;;;;;;;23.30;5.28;;;7.70;99.90;;;;;;5048184;28;20046;-49
2022/12/24 06:09:18;;;;;;;29.83;4.85;;;7.70;99.90;;;;;;5008588;28;1200137;-53
2022/12/24 06:11:45;;;;;;;24.45;4.10;;;7.70;99.90;;;;;;5054646;28;20066;-46
2022/12/24 06:14:12;;;;;;;24.02;4.40;;;7.70;99.90;;;;;;5054678;28;20041;-48
2022/12/24 06:16:39;;;;;;;26.20;3.70;;;7.70;99.90;;;;;;5037287;28;20073;-51
2022/12/24 06:19:05;;;;;;;27.85;4.28;;;7.70;99.90;;;;;;5042087;28;20480;-50
2022/12/24 06:21:32;;;;;;;25.35;3.97;;;7.60;99.90;;;;;;5043027;28;20380;-49
2022/12/24 06:23:59;;;;;;;22.23;3.80;;;7.60;99.90;;;;;;5052490;28;20063;-53
2022/12/24 06:26:26;;;;;;;22.17;4.40;;;7.60;99.90;;;;;;5042007;28;20107;-51
2022/12/24 06:28:53;;;;;;;28.52;4.32;;;7.60;99.90;;;;;;5034221;28;20511;-51
2022/12/24 06:31:19;;;;;;;23.73;4.20;;;7.60;99.90;;;;;;5046983;28;20068;-46
2022/12/24 06:33:47;;;;;;;31.30;4.78;;;7.50;99.90;;;;;;5050696;28;20044;-46
2022/12/24 06:36:14;;;;;;;23.70;3.90;;;7.50;99.90;;;;;;5053403;28;20041;-44
2022/12/24 06:38:43;;;;;;;26.25;4.65;;;7.50;99.90;;;;;;5056214;28;20392;-49
2022/12/24 06:41:10;;;;;;;28.35;4.15;;;7.50;99.90;;;;;;5039251;28;20480;-47
2022/12/24 06:43:37;;;;;;;28.70;4.25;;;7.50;99.90;;;;;;5054058;28;20048;-47
2022/12/24 06:46:04;;;;;;;25.23;4.20;;;7.50;99.90;;;;;;5053992;28;20099;-47
2022/12/24 06:48:31;;;;;;;28.45;4.07;;;7.40;99.90;;;;;;5050310;28;20045;-49
2022/12/24 06:50:58;;;;;;;37.08;5.35;;;7.40;99.90;;;;;;5048541;28;20055;-47
2022/12/24 06:53:25;;;;;;;26.40;5.10;;;7.40;99.90;;;;;;5035932;28;20408;-51
2022/12/24 06:55:51;;;;;;;28.98;5.18;;;7.40;99.90;;;;;;5054122;28;20048;-49
2022/12/24 06:58:18;;;;;;;34.67;4.95;;;7.30;99.90;;;;;;5045447;28;20044;-47
2022/12/24 07:00:45;;;;;;;31.15;4.60;;;7.40;99.90;;;;;;5041925;28;20049;-47
2022/12/24 07:03:12;;;;;;;28.77;4.18;;;7.40;99.90;;;;;;5035440;28;20099;-45
2022/12/24 07:05:38;;;;;;;29.85;4.10;;;7.40;99.90;;;;;;5033935;28;20045;-46
2022/12/24 07:08:05;;;;;;;27.50;4.90;;;7.30;99.90;;;;;;5033048;28;20045;-48
2022/12/24 07:10:32;;;;;;;27.55;4.13;;;7.30;99.90;;;;;;5038060;28;20049;-49
2022/12/24 07:12:59;;;;;;;29.52;4.20;;;7.30;99.90;;;;;;5048616;28;20048;-54
2022/12/24 07:15:25;;;;;;;27.00;3.80;;;7.30;99.90;;;;;;5053664;28;20087;-50
2022/12/24 07:17:52;;;;;;;26.42;4.10;;;7.30;99.90;;;;;;5053585;28;20047;-51
2022/12/24 07:20:19;;;;;;;22.83;4.28;;;7.30;99.90;;;;;;5046492;28;20120;-49
2022/12/24 07:22:45;;;;;;;22.02;3.78;;;7.30;99.90;;;;;;5048278;28;20045;-49
2022/12/24 07:25:12;;;;;;;25.83;4.05;;;7.30;99.90;;;;;;5053585;28;20407;-49
2022/12/24 07:27:39;;;;;;;24.52;3.67;;;7.30;99.90;;;;;;5048642;28;20056;-48
2022/12/24 07:30:06;;;;;;;31.58;4.63;;;7.20;99.90;;;;;;5047151;28;20040;-48
2022/12/24 07:32:33;;;;;;;27.52;4.18;;;7.20;99.90;;;;;;5049430;28;20044;-53
2022/12/24 07:34:59;;;;;;;29.45;4.95;;;7.20;99.90;;;;;;5038589;28;20400;-47
2022/12/24 07:37:26;;;;;;;23.08;3.97;;;7.10;99.90;;;;;;5037888;28;20037;-50
2022/12/24 07:39:53;;;;;;;29.73;4.43;;;7.10;99.90;;;;;;5043246;28;20095;-49
2022/12/24 07:42:19;;;;;;;26.40;4.80;;;7.10;99.90;;;;;;5033498;28;20110;-50
2022/12/24 07:44:46;;;;;;;24.77;5.00;;;7.10;99.90;;;;;;5040731;28;20369;-53
2022/12/24 07:47:13;;;;;;;29.08;4.78;;;7.10;99.90;;;;;;5051820;28;20076;-50
2022/12/24 07:49:40;;;;;;;27.40;3.78;;;7.00;99.90;;;;;;5047801;28;20047;-47
2022/12/24 07:52:07;;;;;;;28.63;4.20;;;7.00;99.90;;;;;;5052073;28;20041;-50
2022/12/24 07:54:33;;;;;;;39.25;5.13;;;7.00;99.90;;;;;;5047131;28;20044;-47
2022/12/24 07:57:00;;;;;;;30.45;4.75;;;7.00;99.90;;;;;;5042444;28;20534;-47
2022/12/24 07:59:27;;;;;;;34.20;4.60;;;7.00;99.90;;;;;;5049238;28;20094;-47
2022/12/24 08:01:54;;;;;;;28.67;4.13;;;7.00;99.90;;;;;;5042511;28;20037;-46
2022/12/24 08:04:21;;;;;;;28.77;5.63;;;6.90;99.90;;;;;;5052526;28;20120;-47
2022/12/24 08:06:47;;;;;;;35.92;4.18;;;6.90;99.90;;;;;;5041853;28;20067;-49
2022/12/24 08:09:14;;;;;;;31.42;3.90;;;6.90;99.90;;;;;;5038444;28;20093;-48
2022/12/24 08:11:41;;;;;;;32.97;5.28;;;6.90;99.90;;;;;;5032846;28;20042;-49
2022/12/24 08:14:17;;;;;;;34.53;4.72;;;6.90;99.90;;;;;;5047387;28;20045;-49
2022/12/24 08:16:43;;;;;;;28.42;4.85;;;6.90;99.90;;;;;;5042726;28;20033;-48
2022/12/24 08:19:10;;;;;;;33.13;4.50;;;6.90;99.90;;;;;;5040225;28;20396;-52
2022/12/24 08:21:37;;;;;;;38.60;5.28;;;6.90;99.90;;;;;;5046107;28;20042;-50
2022/12/24 08:24:04;;;;;;;41.33;6.07;;;6.90;99.90;;;;;;5049637;28;20061;-48
2022/12/24 08:26:30;;;;;;;30.10;5.07;;;6.90;99.90;;;;;;5042479;28;20045;-48
2022/12/24 08:28:57;;;;;;;26.52;4.80;;;6.90;99.90;;;;;;5042764;28;20049;-47
2022/12/24 08:31:24;;;;;;;30.60;4.68;;;6.90;99.90;;;;;;5034638;28;20045;-49
2022/12/24 08:33:51;;;;;;;38.08;5.22;;;7.00;99.90;;;;;;5039587;28;20124;-47
2022/12/24 08:36:18;;;;;;;31.85;4.97;;;7.00;99.90;;;;;;5033144;28;20108;-46
2022/12/24 08:38:44;;;;;;;32.10;5.32;;;7.00;99.90;;;;;;5048516;28;21904;-48
2022/12/24 08:41:11;;;;;;;32.90;4.97;;;7.00;99.90;;;;;;5032311;28;20041;-51
2022/12/24 08:43:38;;;;;;;25.83;4.38;;;7.00;99.90;;;;;;5032677;28;20080;-45
2022/12/24 08:46:05;;;;;;;34.15;5.10;;;7.00;99.90;;;;;;5032394;28;20052;-47
2022/12/24 08:48:32;;;;;;;23.80;4.00;;;7.00;99.90;;;;;;5032818;28;20041;-50
2022/12/24 08:50:58;;;;;;;28.90;4.68;;;7.00;99.90;;;;;;5040018;28;20096;-52
2022/12/24 08:53:25;;;;;;;34.80;5.07;;;7.00;99.90;;;;;;5051820;28;20056;-49
2022/12/24 08:55:52;;;;;;;27.58;4.70;;;7.00;99.90;;;;;;5031706;28;20087;-50
2022/12/24 08:58:22;;;;;;;30.85;4.70;;;7.00;99.90;;;;;;5042413;28;20387;-46
2022/12/24 09:00:49;;;;;;;29.40;4.55;;;6.90;99.90;;;;;;5046241;28;20045;-51
2022/12/24 09:03:15;;;;;;;26.95;5.15;;;6.90;99.90;;;;;;5043613;28;20115;-47
2022/12/24 09:05:52;;;;;;;30.00;4.13;;;6.90;99.90;;;;;;5056064;28;20045;-45
2022/12/24 09:08:19;;;;;;;60.20;7.28;;;6.90;99.90;;;;;;5053573;28;20041;-48
2022/12/24 09:10:46;;;;;;;33.45;5.88;;;6.90;99.90;;;;;;5050789;28;20071;-49
2022/12/24 09:13:12;;;;;;;34.97;5.35;;;6.90;99.90;;;;;;5055798;28;20434;-50
2022/12/24 09:15:39;;;;;;;30.25;4.40;;;6.90;99.90;;;;;;5049173;28;20190;-48
2022/12/24 09:18:06;;;;;;;28.75;5.03;;;6.90;99.90;;;;;;5050402;28;20041;-48
2022/12/24 09:20:33;;;;;;;29.95;4.75;;;6.90;99.90;;;;;;5042099;28;20036;-49
2022/12/24 09:22:59;;;;;;;27.90;4.72;;;6.90;99.90;;;;;;5043122;28;20041;-50
2022/12/24 09:25:26;;;;;;;21.10;4.22;;;6.90;99.90;;;;;;5045558;28;20129;-49
2022/12/24 09:27:53;;;;;;;27.27;4.25;;;6.90;99.90;;;;;;5040314;28;20042;-46
2022/12/24 09:30:20;;;;;;;20.25;4.05;;;7.00;99.90;;;;;;5035934;28;20095;-45
2022/12/24 09:32:46;;;;;;;30.88;4.88;;;7.00;99.90;;;;;;5045137;28;20041;-46
2022/12/24 09:35:13;;;;;;;26.20;4.85;;;7.00;99.90;;;;;;5041474;28;20093;-45
2022/12/24 09:37:40;;;;;;;36.17;4.85;;;7.10;99.90;;;;;;5047086;28;20033;-48
2022/12/24 09:40:06;;;;;;;25.38;3.88;;;7.10;99.90;;;;;;5041120;28;20389;-47
2022/12/24 09:42:33;;;;;;;30.10;5.00;;;7.10;99.90;;;;;;5047810;28;20049;-49
2022/12/24 09:45:00;;;;;;;28.98;4.93;;;7.20;99.90;;;;;;5043205;28;20143;-49
2022/12/24 09:47:27;;;;;;;27.30;4.95;;;7.20;99.90;;;;;;5034886;28;20460;-47
2022/12/24 09:49:53;;;;;;;25.50;4.32;;;7.30;99.90;;;;;;5037439;28;20393;-45
2022/12/24 09:52:20;;;;;;;30.92;4.72;;;7.30;99.90;;;;;;5041885;28;20037;-45
2022/12/24 09:54:47;;;;;;;23.30;3.40;;;7.40;99.90;;;;;;5038307;28;20037;-45
2022/12/24 09:57:15;;;;;;;27.10;4.07;;;7.40;99.90;;;;;;5043131;28;20047;-45
2022/12/24 09:59:42;;;;;;;23.55;3.72;;;7.40;99.90;;;;;;5040448;28;20064;-47
2022/12/24 10:02:09;;;;;;;20.75;3.42;;;7.50;99.90;;;;;;5034494;28;20458;-47
2022/12/24 10:04:36;;;;;;;21.63;4.18;;;7.50;99.90;;;;;;5047116;28;20480;-47
2022/12/24 10:07:02;;;;;;;25.15;3.65;;;7.60;99.90;;;;;;5034900;28;20481;-46
2022/12/24 10:09:29;;;;;;;25.67;4.90;;;7.60;99.90;;;;;;5032465;28;20058;-50
2022/12/24 10:11:56;;;;;;;29.58;4.20;;;7.70;99.90;;;;;;5035113;28;20045;-48
2022/12/24 10:14:22;;;;;;;24.58;4.88;;;7.70;99.90;;;;;;5054581;28;20044;-47
2022/12/24 10:16:49;;;;;;;24.80;5.20;;;7.70;99.90;;;;;;5040690;28;20116;-49
2022/12/24 10:19:16;;;;;;;27.02;4.82;;;7.80;99.90;;;;;;5038494;28;20041;-48
2022/12/24 10:21:43;;;;;;;29.45;4.40;;;7.80;99.90;;;;;;5037360;28;20084;-46
2022/12/24 10:24:10;;;;;;;24.17;3.65;;;7.80;99.90;;;;;;5042860;28;20110;-52
2022/12/24 10:26:36;;;;;;;22.30;3.60;;;7.90;99.90;;;;;;5037119;28;20045;-47
2022/12/24 10:29:03;;;;;;;25.33;4.18;;;7.90;99.90;;;;;;5038405;28;20072;-47
2022/12/24 10:31:30;;;;;;;23.58;4.50;;;7.90;99.90;;;;;;5043861;28;20099;-51
2022/12/24 10:33:57;;;;;;;23.13;4.20;;;7.90;99.90;;;;;;5034338;28;20088;-47
2022/12/24 10:36:23;;;;;;;19.95;3.72;;;8.00;99.90;;;;;;5041939;28;20049;-48
2022/12/24 10:38:50;;;;;;;21.92;3.42;;;8.00;99.90;;;;;;5047613;28;20087;-52
2022/12/24 10:41:17;;;;;;;23.50;3.70;;;8.00;99.90;;;;;;5043890;28;20037;-51
2022/12/24 10:43:43;;;;;;;21.65;3.92;;;8.10;99.90;;;;;;5051280;28;20483;-51
2022/12/24 10:46:10;;;;;;;22.92;3.78;;;8.10;99.90;;;;;;5048855;28;20448;-46
2022/12/24 10:48:37;;;;;;;18.75;3.35;;;8.10;99.90;;;;;;5045797;28;20049;-55
2022/12/24 10:51:04;;;;;;;31.15;4.35;;;8.20;99.90;;;;;;5052948;28;20045;-53
2022/12/24 10:53:31;;;;;;;22.42;3.50;;;8.20;99.90;;;;;;5041087;28;20141;-50
2022/12/24 10:55:58;;;;;;;23.73;4.38;;;8.20;99.90;;;;;;5049469;28;20412;-49
2022/12/24 10:58:25;;;;;;;23.75;3.70;;;8.30;99.90;;;;;;5040655;28;20095;-52
2022/12/24 11:00:51;;;;;;;19.25;3.45;;;8.30;99.90;;;;;;5039667;28;20045;-51
2022/12/24 11:03:18;;;;;;;20.48;3.53;;;8.40;99.90;;;;;;5036411;28;20103;-47
2022/12/24 11:05:45;;;;;;;21.55;3.92;;;8.50;99.90;;;;;;5033218;28;20068;-54
2022/12/24 11:08:12;;;;;;;19.98;3.72;;;8.50;99.90;;;;;;5032697;28;20049;-52
2022/12/24 11:10:39;;;;;;;19.23;4.13;;;8.50;99.90;;;;;;5033932;28;20477;-53
2022/12/24 11:13:05;;;;;;;21.25;4.00;;;8.60;99.90;;;;;;5040938;28;20387;-55
2022/12/24 11:15:52;;;;;;;24.25;3.95;;;8.60;99.90;;;;;;5052401;28;20433;-48
2022/12/24 11:18:19;;;;;;;24.48;4.43;;;8.70;99.90;;;;;;5053359;28;20075;-45
2022/12/24 11:20:46;;;;;;;22.85;4.10;;;8.70;99.90;;;;;;5038206;28;20041;-46
2022/12/24 11:23:12;;;;;;;21.50;4.35;;;8.80;99.90;;;;;;5036799;28;20053;-48
2022/12/24 11:25:39;;;;;;;26.27;4.30;;;8.80;99.90;;;;;;5033631;28;20041;-48
2022/12/24 11:28:06;;;;;;;24.30;4.53;;;8.90;99.90;;;;;;5051903;28;20052;-48
2022/12/24 11:30:34;;;;;;;19.85;4.57;;;8.90;99.90;;;;;;5046138;28;20056;-48
2022/12/24 11:33:00;;;;;;;24.50;3.95;;;9.00;99.90;;;;;;5052065;28;20439;-44
2022/12/24 11:35:27;;;;;;;25.90;4.65;;;9.00;99.90;;;;;;5033375;28;20065;-47
2022/12/24 11:37:54;;;;;;;22.65;3.97;;;9.10;99.90;;;;;;5035785;28;20095;-46
2022/12/24 11:40:21;;;;;;;25.45;4.55;;;9.10;99.90;;;;;;5035565;28;20037;-46
2022/12/24 11:42:52;;;;;;;30.00;4.97;;;9.10;99.90;;;;;;5033263;28;20041;-45
2022/12/24 11:45:18;;;;;;;27.40;5.63;;;9.20;99.90;;;;;;5041099;28;20091;-49
2022/12/24 11:47:45;;;;;;;26.88;5.13;;;9.20;99.90;;;;;;5048973;28;20039;-49
2022/12/24 11:50:12;;;;;;;24.65;5.78;;;9.30;99.90;;;;;;5039815;28;20060;-47
2022/12/24 11:52:46;;;;;;;24.02;4.80;;;9.30;99.90;;;;;;5033050;28;20492;-49
2022/12/24 11:55:12;;;;;;;31.33;5.13;;;9.40;99.90;;;;;;5042299;28;20372;-49
2022/12/24 11:57:42;;;;;;;24.23;5.13;;;9.40;99.90;;;;;;5032146;28;20052;-46
2022/12/24 12:00:09;;;;;;;30.45;5.05;;;9.50;99.90;;;;;;5046357;28;20435;-52
2022/12/24 12:02:36;;;;;;;35.90;6.00;;;9.50;99.90;;;;;;5038192;28;20412;-47
2022/12/24 12:05:03;;;;;;;27.63;4.78;;;9.60;99.90;;;;;;5042016;28;20045;-48
2022/12/24 12:07:29;;;;;;;35.85;5.72;;;9.60;99.90;;;;;;5043072;28;20065;-46
2022/12/24 12:09:56;;;;;;;35.53;5.35;;;9.60;99.90;;;;;;5032698;28;20056;-52
2022/12/24 12:12:23;;;;;;;35.45;7.13;;;9.70;99.90;;;;;;5032930;28;20056;-51
2022/12/24 12:14:50;;;;;;;29.10;6.05;;;9.70;99.90;;;;;;5040795;28;20065;-48
2022/12/24 12:17:16;;;;;;;29.55;5.50;;;9.70;99.90;;;;;;5044581;28;20056;-50
2022/12/24 12:19:43;;;;;;;32.63;5.70;;;9.70;99.90;;;;;;5037330;28;20150;-53
2022/12/24 12:22:10;;;;;;;31.02;5.35;;;9.80;99.90;;;;;;5039788;28;20033;-51
2022/12/24 12:24:36;;;;;;;29.15;5.13;;;9.80;99.90;;;;;;5048124;28;20550;-50
2022/12/24 12:27:03;;;;;;;32.78;5.25;;;9.80;99.90;;;;;;5044910;28;20050;-53
2022/12/24 12:29:30;;;;;;;29.58;5.30;;;9.90;99.90;;;;;;5036684;28;20045;-50
2022/12/24 12:31:57;;;;;;;32.90;5.78;;;9.90;99.90;;;;;;5047688;28;20067;-45
2022/12/24 12:34:23;;;;;;;26.50;5.28;;;9.90;99.90;;;;;;5038701;28;20107;-52
2022/12/24 12:36:50;;;;;;;30.92;5.20;;;9.90;99.90;;;;;;5042669;28;20033;-54
2022/12/24 12:39:17;;;;;;;30.88;5.35;;;10.00;99.90;;;;;;5042398;28;20045;-47
2022/12/24 12:41:44;;;;;;;34.90;5.90;;;10.00;99.90;;;;;;5053120;28;20346;-47
2022/12/24 12:44:10;;;;;;;21.98;5.03;;;10.00;99.90;;;;;;5050816;28;20041;-48
2022/12/24 12:46:37;;;;;;;25.65;4.97;;;10.00;99.90;;;;;;5049988;28;20079;-50
2022/12/24 12:49:04;;;;;;;35.95;6.03;;;10.00;99.90;;;;;;5048833;28;20116;-47
2022/12/24 12:51:31;;;;;;;34.47;5.65;;;10.10;99.90;;;;;;5043821;28;20034;-49
2022/12/24 12:53:58;;;;;;;32.55;6.18;;;10.10;99.90;;;;;;5038803;28;20484;-49